createdAt,value
2019-03-24T00:01:41.232Z,100635.95
2019-03-24T00:04:06.065Z,100643.35
2019-03-24T00:06:37.205Z,100634.10
2019-03-24T00:09:09.262Z,100638.17
2019-03-24T00:11:40.289Z,100630.24
2019-03-24T00:14:11.261Z,100629.63
2019-03-24T00:16:42.285Z,100631.73
2019-03-24T00:19:13.298Z,100627.23
2019-03-24T00:21:44.281Z,100628.82
2019-03-24T00:24:15.295Z,100624.13
2019-03-24T00:26:46.329Z,100615.88
2019-03-24T00:29:17.317Z,100619.13
2019-03-24T00:31:48.355Z,100614.16
2019-03-24T00:34:19.343Z,100617.72
2019-03-24T00:36:50.377Z,100616.04
2019-03-24T00:39:21.585Z,100616.67
2019-03-24T00:41:52.560Z,100610.13
2019-03-24T00:44:23.577Z,100598.25
2019-03-24T00:46:54.561Z,100595.35
2019-03-24T00:49:25.586Z,100603.25
2019-03-24T00:51:56.570Z,100604.41
2019-03-24T00:54:27.592Z,100602.84
2019-03-24T00:56:58.563Z,100607.73
2019-03-24T00:59:29.641Z,100602.83
2019-03-24T01:02:00.689Z,100598.86
2019-03-24T01:04:31.680Z,100598.47
2019-03-24T01:07:02.707Z,100603.86
2019-03-24T01:09:33.793Z,100598.55
2019-03-24T01:12:04.912Z,100598.88
2019-03-24T01:14:35.998Z,100591.78
2019-03-24T01:17:07.035Z,100588.24
2019-03-24T01:19:38.012Z,100585.63
2019-03-24T01:22:09.123Z,100590.61
2019-03-24T01:24:40.113Z,100588.20
2019-03-24T01:27:11.133Z,100583.61
2019-03-24T01:29:42.148Z,100583.30
2019-03-24T01:32:13.172Z,100579.44
2019-03-24T01:34:44.164Z,100582.53
2019-03-24T01:37:15.188Z,100580.25
2019-03-24T01:39:46.171Z,100577.97
2019-03-24T01:42:17.185Z,100574.64
2019-03-24T01:44:48.200Z,100580.24
2019-03-24T01:47:19.219Z,100581.16
2019-03-24T01:49:50.224Z,100577.52
2019-03-24T01:52:21.299Z,100576.26
2019-03-24T01:54:52.307Z,100580.51
2019-03-24T01:57:23.304Z,100580.21
2019-03-24T01:59:54.303Z,100583.63
2019-03-24T02:02:25.296Z,100578.09
2019-03-24T02:04:56.359Z,100577.07
2019-03-24T02:07:27.372Z,100576.19
2019-03-24T02:09:58.345Z,100566.63
2019-03-24T02:12:29.355Z,100563.10
2019-03-24T02:15:00.351Z,100565.80
2019-03-24T02:17:31.376Z,100567.88
2019-03-24T02:20:02.355Z,100563.82
2019-03-24T02:22:33.337Z,100564.34
2019-03-24T02:25:04.494Z,100553.84
2019-03-24T02:27:35.470Z,100559.44
2019-03-24T02:30:07.809Z,100552.68
2019-03-24T02:32:38.792Z,100545.83
2019-03-24T02:35:09.953Z,100547.59
2019-03-24T02:37:40.981Z,100545.61
2019-03-24T02:40:12.170Z,100535.72
2019-03-24T02:42:43.207Z,100537.48
2019-03-24T02:45:14.564Z,100531.64
2019-03-24T02:47:45.607Z,100529.33
2019-03-24T02:50:16.931Z,100522.66
2019-03-24T02:52:48.047Z,100522.88
2019-03-24T02:55:19.123Z,100528.67
2019-03-24T02:57:50.094Z,100521.70
2019-03-24T03:00:21.168Z,100532.06
2019-03-24T03:02:52.195Z,100532.78
2019-03-24T03:05:23.171Z,100529.63
2019-03-24T03:07:54.194Z,100525.70
2019-03-24T03:10:25.226Z,100528.25
2019-03-24T03:12:56.191Z,100526.49
2019-03-24T03:15:27.316Z,100525.22
2019-03-24T03:17:58.317Z,100421.73
2019-03-24T03:20:29.281Z,100521.08
2019-03-24T03:23:00.318Z,100532.17
2019-03-24T03:25:31.263Z,100525.50
2019-03-24T03:28:02.378Z,100533.97
2019-03-24T03:30:33.350Z,100525.95
2019-03-24T03:33:04.377Z,100528.42
2019-03-24T03:35:35.406Z,100532.35
2019-03-24T03:38:06.525Z,100533.59
2019-03-24T03:40:37.502Z,100532.62
2019-03-24T03:43:08.762Z,100536.55
2019-03-24T03:45:39.776Z,100537.45
2019-03-24T03:48:10.791Z,100534.11
2019-03-24T03:50:41.769Z,100524.23
2019-03-24T03:53:12.749Z,100520.01
2019-03-24T03:55:43.881Z,100524.78
2019-03-24T03:58:14.896Z,100529.20
2019-03-24T04:00:45.876Z,100531.25
2019-03-24T04:03:16.860Z,100530.95
2019-03-24T04:05:47.905Z,100533.23
2019-03-24T04:08:18.874Z,100532.59
2019-03-24T04:10:49.910Z,100536.58
2019-03-24T04:13:20.931Z,100545.00
2019-03-24T04:15:51.927Z,100536.20
2019-03-24T04:18:22.942Z,100534.67
2019-03-24T04:20:53.934Z,100526.89
2019-03-24T04:23:24.955Z,100530.75
2019-03-24T04:25:55.945Z,100530.41
2019-03-24T04:28:26.972Z,100532.62
2019-03-24T04:30:57.947Z,100532.40
2019-03-24T04:33:28.981Z,100530.75
2019-03-24T04:35:59.965Z,100525.99
2019-03-24T04:38:31.033Z,100523.30
2019-03-24T04:41:02.033Z,100517.27
2019-03-24T04:43:33.061Z,100522.20
2019-03-24T04:46:04.093Z,100524.30
2019-03-24T04:48:35.081Z,100527.73
2019-03-24T04:51:06.129Z,100535.27
2019-03-24T04:53:37.117Z,100533.09
2019-03-24T04:56:08.099Z,100536.05
2019-03-24T04:58:39.120Z,100537.78
2019-03-24T05:01:10.108Z,100539.85
2019-03-24T05:03:41.143Z,100542.33
2019-03-24T05:06:12.433Z,100539.73
2019-03-24T05:08:43.560Z,100538.49
2019-03-24T05:11:14.552Z,100536.19
2019-03-24T05:13:45.585Z,100538.14
2019-03-24T05:16:16.610Z,100538.75
2019-03-24T05:18:47.636Z,100552.05
2019-03-24T05:21:18.628Z,100545.92
2019-03-24T05:23:49.665Z,100549.36
2019-03-24T05:26:20.643Z,100546.26
2019-03-24T05:28:51.672Z,100539.62
2019-03-24T05:31:22.658Z,100538.90
2019-03-24T05:33:53.703Z,100543.61
2019-03-24T05:36:24.700Z,100540.58
2019-03-24T05:38:55.732Z,100550.16
2019-03-24T05:41:26.767Z,100552.63
2019-03-24T05:43:57.795Z,100548.27
2019-03-24T05:46:28.794Z,100556.40
2019-03-24T05:49:00.331Z,100559.93
2019-03-24T05:51:31.331Z,100564.28
2019-03-24T05:54:02.372Z,100559.88
2019-03-24T05:56:33.405Z,100568.17
2019-03-24T05:59:04.434Z,100562.25
2019-03-24T06:01:35.427Z,100567.75
2019-03-24T06:04:06.457Z,100569.78
2019-03-24T06:06:37.393Z,100572.33
2019-03-24T06:09:08.661Z,100573.48
2019-03-24T06:11:39.613Z,100580.10
2019-03-24T06:14:10.595Z,100581.10
2019-03-24T06:16:41.546Z,100578.44
2019-03-24T06:19:12.556Z,100577.43
2019-03-24T06:21:43.497Z,100579.05
2019-03-24T06:24:14.692Z,100576.75
2019-03-24T06:26:45.681Z,100579.25
2019-03-24T06:29:16.686Z,100586.95
2019-03-24T06:31:47.634Z,100582.59
2019-03-24T06:34:18.636Z,100592.53
2019-03-24T06:36:49.589Z,100593.95
2019-03-24T06:39:20.537Z,100594.30
2019-03-24T06:41:51.521Z,100597.53
2019-03-24T06:44:22.474Z,100593.29
2019-03-24T06:46:53.475Z,100593.88
2019-03-24T06:49:24.424Z,100596.91
2019-03-24T06:51:55.372Z,100600.80
2019-03-24T06:54:26.427Z,100588.34
2019-03-24T06:56:57.377Z,100585.34
2019-03-24T06:59:28.307Z,100587.15
2019-03-24T07:01:59.294Z,100583.78
2019-03-24T07:04:30.235Z,100578.61
2019-03-24T07:07:01.231Z,100585.46
2019-03-24T07:09:32.175Z,100584.80
2019-03-24T07:12:03.221Z,100582.84
2019-03-24T07:14:34.176Z,100585.24
2019-03-24T07:17:05.273Z,100590.50
2019-03-24T07:19:36.221Z,100586.05
2019-03-24T07:22:07.365Z,100590.63
2019-03-24T07:24:38.344Z,100592.30
2019-03-24T07:27:09.338Z,100597.70
2019-03-24T07:29:41.294Z,100593.05
2019-03-24T07:32:12.263Z,100590.78
2019-03-24T07:34:43.253Z,100585.00
2019-03-24T07:37:14.310Z,100587.04
2019-03-24T07:39:45.321Z,100581.44
2019-03-24T07:42:16.315Z,100585.96
2019-03-24T07:44:47.274Z,100587.51
2019-03-24T07:47:18.373Z,100587.98
2019-03-24T07:49:49.369Z,100590.42
2019-03-24T07:52:20.378Z,100593.42
2019-03-24T07:54:51.378Z,100585.87
2019-03-24T07:57:22.325Z,100581.33
2019-03-24T07:59:53.329Z,100572.55
2019-03-24T08:02:24.606Z,100570.26
2019-03-24T08:04:55.605Z,100572.82
2019-03-24T08:07:26.546Z,100559.24
2019-03-24T08:09:57.492Z,100553.48
2019-03-24T08:12:28.489Z,100547.75
2019-03-24T08:15:00.057Z,100548.03
2019-03-24T08:17:31.207Z,100541.32
2019-03-24T08:20:02.163Z,100542.30
2019-03-24T08:22:33.146Z,100538.67
2019-03-24T08:25:04.338Z,100535.73
2019-03-24T08:27:35.299Z,100528.55
2019-03-24T08:30:06.764Z,100527.63
2019-03-24T08:32:37.761Z,100531.52
2019-03-24T08:35:09.401Z,100528.00
2019-03-24T08:37:40.402Z,100517.09
2019-03-24T08:40:11.554Z,100511.37
2019-03-24T08:42:42.657Z,100517.21
2019-03-24T08:45:16.909Z,100514.92
2019-03-24T08:47:47.896Z,100520.11
2019-03-24T08:50:18.899Z,100515.67
2019-03-24T08:52:49.863Z,100511.43
2019-03-24T08:55:20.870Z,100506.52
2019-03-24T08:57:51.871Z,100509.16
2019-03-24T09:00:30.470Z,100509.16
2019-03-24T09:02:55.577Z,100502.84
2019-03-24T09:05:26.568Z,100511.27
2019-03-24T09:07:57.505Z,100497.87
2019-03-24T09:10:28.501Z,100497.02
2019-03-24T09:12:59.490Z,100499.01
2019-03-24T09:15:30.479Z,100497.41
2019-03-24T09:18:01.530Z,100488.59
2019-03-24T09:20:41.170Z,100483.35
2019-03-24T09:23:05.304Z,100481.08
2019-03-24T09:25:36.457Z,100475.61
2019-03-24T09:28:09.224Z,100462.23
2019-03-24T09:30:40.619Z,100460.56
2019-03-24T09:33:11.672Z,100457.31
2019-03-24T09:35:42.679Z,100458.34
2019-03-24T09:38:13.648Z,100452.44
2019-03-24T09:40:44.648Z,100442.57
2019-03-24T09:43:15.609Z,100444.30
2019-03-24T09:45:46.556Z,100438.61
2019-03-24T09:48:17.548Z,100439.14
2019-03-24T09:50:48.489Z,100429.41
2019-03-24T09:53:19.488Z,100425.14
2019-03-24T09:55:50.479Z,100421.88
2019-03-24T09:58:21.424Z,100409.73
2019-03-24T10:00:52.390Z,100413.09
2019-03-24T10:03:23.386Z,100409.91
2019-03-24T10:05:54.328Z,100405.63
2019-03-24T10:08:25.314Z,100399.88
2019-03-24T10:10:56.302Z,100397.87
2019-03-24T10:13:27.301Z,100394.16
2019-03-24T10:15:58.241Z,100393.94
2019-03-24T10:18:29.186Z,100393.16
2019-03-24T10:21:00.172Z,100390.44
2019-03-24T10:23:31.130Z,100388.83
2019-03-24T10:26:02.145Z,100386.66
2019-03-24T10:28:33.069Z,100389.94
2019-03-24T10:31:04.153Z,100380.41
2019-03-24T10:33:35.143Z,100381.25
2019-03-24T10:36:06.236Z,100375.59
2019-03-24T10:38:37.172Z,100369.81
2019-03-24T10:41:08.126Z,100365.53
2019-03-24T10:43:39.126Z,100360.94
2019-03-24T10:46:10.105Z,100351.12
2019-03-24T10:48:41.062Z,100357.15
2019-03-24T10:51:11.999Z,100350.05
2019-03-24T10:53:42.979Z,100343.76
2019-03-24T10:56:13.927Z,100338.55
2019-03-24T10:58:44.920Z,100339.08
2019-03-24T11:01:15.917Z,100332.25
2019-03-24T11:03:46.866Z,100327.06
2019-03-24T11:06:17.809Z,100318.84
2019-03-24T11:08:48.792Z,100313.56
2019-03-24T11:11:19.735Z,100311.89
2019-03-24T11:13:50.719Z,100308.69
2019-03-24T11:16:21.660Z,100304.53
2019-03-24T11:18:52.640Z,100308.39
2019-03-24T11:21:23.580Z,100299.40
2019-03-24T11:23:54.557Z,100290.03
2019-03-24T11:26:25.500Z,100299.05
2019-03-24T11:28:56.482Z,100290.28
2019-03-24T11:31:27.475Z,100281.50
2019-03-24T11:33:58.430Z,100283.17
2019-03-24T11:36:29.380Z,100184.00
2019-03-24T11:39:00.367Z,100280.61
2019-03-24T11:41:31.356Z,100278.94
2019-03-24T11:44:02.305Z,100272.66
2019-03-24T11:46:33.323Z,100265.62
2019-03-24T11:49:04.268Z,100259.33
2019-03-24T11:51:35.256Z,100256.89
2019-03-24T11:54:06.345Z,100247.84
2019-03-24T11:56:37.335Z,100245.11
2019-03-24T11:59:08.288Z,100237.16
2019-03-24T12:01:39.284Z,100235.26
2019-03-24T12:04:10.287Z,100228.11
2019-03-24T12:06:41.275Z,100222.89
2019-03-24T12:09:12.269Z,100223.71
2019-03-24T12:11:43.212Z,100215.49
2019-03-24T12:14:14.191Z,100209.52
2019-03-24T12:16:45.139Z,100208.70
2019-03-24T12:19:16.126Z,100196.09
2019-03-24T12:21:47.123Z,100192.25
2019-03-24T12:24:18.057Z,100196.35
2019-03-24T12:26:49.013Z,100194.72
2019-03-24T12:29:20.005Z,100187.61
2019-03-24T12:31:50.956Z,100183.77
2019-03-24T12:34:21.951Z,100178.30
2019-03-24T12:36:52.952Z,100181.04
2019-03-24T12:39:23.906Z,100181.03
2019-03-24T12:41:54.932Z,100176.39
2019-03-24T12:44:25.893Z,100172.27
2019-03-24T12:46:56.883Z,100165.68
2019-03-24T12:49:27.831Z,100160.17
2019-03-24T12:51:58.776Z,100157.17
2019-03-24T12:54:29.719Z,100154.14
2019-03-24T12:57:00.825Z,100151.41
2019-03-24T12:59:31.758Z,100152.21
2019-03-24T13:02:03.694Z,100151.42
2019-03-24T13:04:34.724Z,100149.21
2019-03-24T13:07:05.820Z,100141.81
2019-03-24T13:09:36.771Z,100141.55
2019-03-24T13:12:07.720Z,100140.16
2019-03-24T13:14:38.665Z,100137.16
2019-03-24T13:17:09.613Z,100135.75
2019-03-24T13:19:40.605Z,100125.83
2019-03-24T13:22:11.546Z,100126.09
2019-03-24T13:24:42.523Z,100133.21
2019-03-24T13:27:13.476Z,100126.05
2019-03-24T13:29:44.458Z,100112.05
2019-03-24T13:32:15.438Z,100118.05
2019-03-24T13:34:46.381Z,100115.00
2019-03-24T13:37:17.372Z,100107.55
2019-03-24T13:39:48.327Z,100114.42
2019-03-24T13:42:19.286Z,100103.44
2019-03-24T13:44:50.321Z,100097.94
2019-03-24T13:47:21.283Z,100100.12
2019-03-24T13:49:52.276Z,100091.37
2019-03-24T13:52:23.224Z,100085.91
2019-03-24T13:54:54.208Z,100089.42
2019-03-24T13:57:25.154Z,100081.17
2019-03-24T13:59:56.136Z,100076.77
2019-03-24T14:02:27.086Z,100075.10
2019-03-24T14:04:58.089Z,100075.35
2019-03-24T14:07:29.035Z,100073.17
2019-03-24T14:09:59.983Z,100067.41
2019-03-24T14:12:30.924Z,100069.60
2019-03-24T14:15:01.875Z,100058.02
2019-03-24T14:17:32.919Z,100056.39
2019-03-24T14:20:04.008Z,100053.92
2019-03-24T14:22:35.065Z,100052.80
2019-03-24T14:25:06.713Z,100044.05
2019-03-24T14:27:37.761Z,100044.00
2019-03-24T14:30:09.856Z,100042.93
2019-03-24T14:32:40.854Z,100034.97
2019-03-24T14:35:12.048Z,100033.87
2019-03-24T14:37:42.994Z,100032.27
2019-03-24T14:40:14.487Z,100024.66
2019-03-24T14:42:45.507Z,100028.77
2019-03-24T14:45:16.700Z,100026.84
2019-03-24T14:47:47.706Z,100020.80
2019-03-24T14:50:18.755Z,100018.34
2019-03-24T14:52:49.709Z,100015.08
2019-03-24T14:55:20.701Z,100023.34
2019-03-24T14:57:51.759Z,100020.07
2019-03-24T15:00:31.382Z,100016.48
2019-03-24T15:03:02.371Z,100006.64
2019-03-24T15:05:33.420Z,100012.45
2019-03-24T15:08:05.739Z,100013.02
2019-03-24T15:10:36.751Z,100011.40
2019-03-24T15:13:07.976Z,100011.44
2019-03-24T15:15:39.069Z,100012.81
2019-03-24T15:18:10.102Z,100010.92
2019-03-24T15:20:41.135Z,100009.02
2019-03-24T15:23:12.125Z,100010.13
2019-03-24T15:25:43.112Z,100003.52
2019-03-24T15:28:14.208Z,100000.51
2019-03-24T15:30:45.250Z,100005.74
2019-03-24T15:33:16.326Z,100003.58
2019-03-24T15:35:47.354Z,99996.75
2019-03-24T15:38:18.327Z,99998.66
2019-03-24T15:40:49.799Z,99994.29
2019-03-24T15:43:20.779Z,99997.03
2019-03-24T15:45:51.803Z,99998.67
2019-03-24T15:48:22.783Z,99995.41
2019-03-24T15:50:53.770Z,99994.05
2019-03-24T15:53:24.789Z,99994.59
2019-03-24T15:55:55.779Z,99997.36
2019-03-24T15:58:26.816Z,99994.09
2019-03-24T16:00:57.812Z,99995.45
2019-03-24T16:03:28.860Z,99997.40
2019-03-24T16:05:59.845Z,99994.65
2019-03-24T16:08:30.879Z,99995.75
2019-03-24T16:11:01.970Z,99994.66
2019-03-24T16:13:33.013Z,99991.09
2019-03-24T16:16:04.036Z,99991.11
2019-03-24T16:18:35.060Z,99992.17
2019-03-24T16:21:06.058Z,99994.64
2019-03-24T16:23:37.095Z,99999.84
2019-03-24T16:26:08.137Z,100000.66
2019-03-24T16:28:39.132Z,100008.05
2019-03-24T16:31:10.175Z,100000.08
2019-03-24T16:33:41.404Z,100001.71
2019-03-24T16:36:12.429Z,100001.42
2019-03-24T16:38:48.797Z,100001.39
2019-03-24T16:41:16.132Z,100001.39
2019-03-24T16:43:47.123Z,100004.36
2019-03-24T16:46:18.250Z,100002.65
2019-03-24T16:48:49.285Z,100005.34
2019-03-24T16:51:20.271Z,100007.22
2019-03-24T16:53:51.349Z,100011.27
2019-03-24T16:56:22.343Z,100009.59
2019-03-24T16:58:53.369Z,100016.94
2019-03-24T17:01:24.511Z,100021.56
2019-03-24T17:03:55.492Z,100019.31
2019-03-24T17:06:26.485Z,100021.98
2019-03-24T17:08:57.524Z,100020.00
2019-03-24T17:11:28.512Z,100017.19
2019-03-24T17:13:59.558Z,100017.41
2019-03-24T17:16:30.539Z,100014.59
2019-03-24T17:19:01.532Z,100007.97
2019-03-24T17:21:32.561Z,100008.97
2019-03-24T17:24:03.594Z,100020.37
2019-03-24T17:26:36.023Z,100019.78
2019-03-24T17:29:06.986Z,100020.49
2019-03-24T17:31:37.992Z,100022.07
2019-03-24T17:34:09.047Z,100017.31
2019-03-24T17:36:40.342Z,100015.34
2019-03-24T17:39:11.369Z,100018.22
2019-03-24T17:41:42.366Z,100014.31
2019-03-24T17:44:13.417Z,100010.67
2019-03-24T17:46:44.406Z,100017.11
2019-03-24T17:49:15.411Z,100024.92
2019-03-24T17:51:46.452Z,100022.06
2019-03-24T17:54:17.493Z,100028.81
2019-03-24T17:56:48.507Z,100033.91
2019-03-24T17:59:19.598Z,100029.43
2019-03-24T18:01:50.597Z,100034.19
2019-03-24T18:04:24.772Z,100039.81
2019-03-24T18:06:54.348Z,100036.16
2019-03-24T18:09:25.361Z,100036.87
2019-03-24T18:11:56.395Z,100039.23
2019-03-24T18:14:27.399Z,100038.01
2019-03-24T18:16:58.468Z,100044.75
2019-03-24T18:19:29.505Z,100042.53
2019-03-24T18:22:11.102Z,100048.62
2019-03-24T18:24:33.254Z,100050.89
2019-03-24T18:27:04.290Z,100057.63
2019-03-24T18:29:35.338Z,100053.91
2019-03-24T18:32:06.348Z,100054.03
2019-03-24T18:34:37.342Z,100058.50
2019-03-24T18:37:08.471Z,100055.16
2019-03-24T18:39:39.506Z,100059.16
2019-03-24T18:42:10.642Z,100067.05
2019-03-24T18:44:41.642Z,100069.72
2019-03-24T18:47:12.682Z,100073.84
2019-03-24T18:49:43.730Z,100070.30
2019-03-24T18:52:22.684Z,100069.42
2019-03-24T18:54:47.673Z,100066.75
2019-03-24T18:57:18.722Z,100067.87
2019-03-24T18:59:49.818Z,100074.55
2019-03-24T19:02:20.867Z,100071.98
2019-03-24T19:04:51.868Z,100071.88
2019-03-24T19:07:22.884Z,100078.86
2019-03-24T19:09:53.930Z,100075.97
2019-03-24T19:12:24.976Z,100083.08
2019-03-24T19:14:56.014Z,100081.31
2019-03-24T19:17:27.001Z,100083.39
2019-03-24T19:19:58.039Z,100089.36
2019-03-24T19:22:33.562Z,100080.20
2019-03-24T19:25:01.745Z,100080.60
2019-03-24T19:27:32.834Z,100081.48
2019-03-24T19:30:04.083Z,100081.19
2019-03-24T19:32:35.336Z,100079.89
2019-03-24T19:35:06.981Z,100084.13
2019-03-24T19:37:38.048Z,100077.77
2019-03-24T19:40:15.185Z,100079.58
2019-03-24T19:42:46.158Z,100073.02
2019-03-24T19:45:17.199Z,100075.50
2019-03-24T19:47:48.215Z,100070.24
2019-03-24T19:50:19.308Z,100074.31
2019-03-24T19:52:50.436Z,100075.80
2019-03-24T19:55:21.442Z,100074.89
2019-03-24T19:57:52.449Z,100075.91
2019-03-24T20:00:23.592Z,100083.73
2019-03-24T20:02:54.584Z,100083.30
2019-03-24T20:05:26.977Z,100086.84
2019-03-24T20:07:58.085Z,100091.70
2019-03-24T20:10:29.115Z,100091.70
2019-03-24T20:13:00.113Z,100092.34
2019-03-24T20:15:31.204Z,100085.72
2019-03-24T20:18:02.193Z,100086.12
2019-03-24T20:20:33.222Z,100080.33
2019-03-24T20:23:04.348Z,100082.59
2019-03-24T20:25:35.475Z,100088.23
2019-03-24T20:28:06.613Z,100086.69
2019-03-24T20:30:37.605Z,100087.73
2019-03-24T20:33:08.654Z,100089.98
2019-03-24T20:35:39.659Z,100086.97
2019-03-24T20:38:10.700Z,100085.63
2019-03-24T20:40:41.742Z,100071.70
2019-03-24T20:43:12.838Z,100080.05
2019-03-24T20:45:43.881Z,100078.70
2019-03-24T20:48:15.048Z,100079.02
2019-03-24T20:50:46.182Z,100084.20
2019-03-24T20:53:18.316Z,100074.78
2019-03-24T20:55:49.756Z,100073.89
2019-03-24T20:58:20.762Z,100079.47
2019-03-24T21:00:51.910Z,100074.11
2019-03-24T21:03:22.954Z,100079.31
2019-03-24T21:05:53.963Z,100078.83
2019-03-24T21:08:24.971Z,100094.47
2019-03-24T21:10:55.971Z,100089.19
2019-03-24T21:13:27.030Z,100081.42
2019-03-24T21:15:58.023Z,100085.09
2019-03-24T21:18:29.055Z,100089.45
2019-03-24T21:21:00.097Z,100089.38
2019-03-24T21:23:31.133Z,100085.83
2019-03-24T21:26:02.226Z,100093.41
2019-03-24T21:28:33.259Z,100095.66
2019-03-24T21:31:04.254Z,100089.64
2019-03-24T21:33:35.281Z,100089.64
2019-03-24T21:36:06.508Z,100084.69
2019-03-24T21:38:37.501Z,100078.48
2019-03-24T21:41:08.630Z,100073.47
2019-03-24T21:43:39.625Z,100079.41
2019-03-24T21:46:10.654Z,100072.76
2019-03-24T21:48:41.653Z,100069.04
2019-03-24T21:51:12.676Z,100075.24
2019-03-24T21:53:43.705Z,100078.23
2019-03-24T21:56:14.741Z,100076.59
2019-03-24T21:58:45.728Z,100080.33
2019-03-24T22:01:16.779Z,100077.63
2019-03-24T22:03:47.798Z,100077.49
2019-03-24T22:06:18.841Z,100078.89
2019-03-24T22:08:49.884Z,100076.06
2019-03-24T22:11:20.891Z,100075.53
2019-03-24T22:13:51.928Z,100077.63
2019-03-24T22:16:22.959Z,100090.78
2019-03-24T22:18:53.956Z,100086.31
2019-03-24T22:21:25.090Z,100078.20
2019-03-24T22:23:56.078Z,100076.53
2019-03-24T22:26:27.108Z,100079.77
2019-03-24T22:28:58.137Z,100089.44
2019-03-24T22:31:29.135Z,100081.56
2019-03-24T22:34:00.174Z,100078.01
2019-03-24T22:36:31.172Z,100085.30
2019-03-24T22:39:02.206Z,100091.52
2019-03-24T22:41:33.249Z,100084.89
2019-03-24T22:44:04.242Z,100077.52
2019-03-24T22:46:35.285Z,100071.82
2019-03-24T22:49:06.435Z,100078.58
2019-03-24T22:51:37.434Z,100081.70
2019-03-24T22:54:08.451Z,100095.91
2019-03-24T22:56:39.522Z,100103.14
2019-03-24T22:59:10.534Z,100101.67
2019-03-24T23:01:41.632Z,100101.73
2019-03-24T23:04:12.658Z,100106.47
2019-03-24T23:06:43.682Z,100101.55
2019-03-24T23:09:14.674Z,100100.08
2019-03-24T23:11:45.705Z,100103.72
2019-03-24T23:14:16.744Z,100095.83
2019-03-24T23:16:47.744Z,100096.97
2019-03-24T23:19:18.737Z,100097.47
2019-03-24T23:21:49.741Z,100093.12
2019-03-24T23:24:20.736Z,100086.36
2019-03-24T23:26:51.773Z,100085.55
2019-03-24T23:29:22.766Z,100083.87
2019-03-24T23:31:53.805Z,100085.34
2019-03-24T23:34:24.818Z,100083.70
2019-03-24T23:36:55.847Z,100085.25
2019-03-24T23:39:26.838Z,100082.14
2019-03-24T23:41:58.060Z,100079.89
2019-03-24T23:44:29.053Z,100077.39
2019-03-24T23:47:00.094Z,100078.95
2019-03-24T23:49:31.130Z,100070.02
2019-03-24T23:52:02.131Z,100068.05
2019-03-24T23:54:33.169Z,100060.69
2019-03-24T23:57:04.165Z,100054.37
2019-03-24T23:59:35.190Z,100056.95
